Decoded Metar for GEML (MELILLA in SPAIN) (IATA:MLN) | Meteo·Mobile Aviation Weather
aviador You're here:

GEML Decoded Metar

MELILLA in SPAIN
Report Time2018-11-20 05:00:00
UTC Time2018-11-20 05:24:12
Flight Rules vfr VFR
WindVRB at 02 kt
Visibility9999 m
Phenomena:N/A
Clouds:N/A
Expected CloudBase > 3,200 ft AGL from Temp-Dew spread
CeilingNone
Temp14°C (ISA -1)
Dew Point06°C (59% RH)
AAT12.4°C
QNH1006 hPa
Density Alt469 ft
Elevation180 ft
Report Wrong Elevation
Raw Report
GEML 200500Z VRB02KT CAVOK 14/06 Q1006=

Extra information for GEML:More info

Metar Taf Metar & Taf Last 4 Metars F.Rules Stats Wind Profile Meteogram Temp Stats Airport Information Weather charts Add Link Nearby VenuesMetar ALERT Operation Metar Decoded Social comments